sensor_id;sensor_type;location;lat;lon;timestamp;pressure;altitude;pressure_sealevel;temperature;humidity
4972;BME280;2501;51.214;6.768;2023-07-20T00:01:14;101086.66;;;17.52;82.83
4972;BME280;2501;51.214;6.768;2023-07-20T00:03:43;101089.78;;;17.79;81.72
4972;BME280;2501;51.214;6.768;2023-07-20T00:06:13;101087.78;;;17.39;82.97
4972;BME280;2501;51.214;6.768;2023-07-20T00:08:42;101083.53;;;17.83;81.44
4972;BME280;2501;51.214;6.768;2023-07-20T00:11:10;101074.63;;;17.84;81.04
4972;BME280;2501;51.214;6.768;2023-07-20T00:13:39;101067.56;;;17.84;80.81
4972;BME280;2501;51.214;6.768;2023-07-20T00:16:07;101074.41;;;17.97;81.17
4972;BME280;2501;51.214;6.768;2023-07-20T00:18:38;101076.38;;;17.85;80.72
4972;BME280;2501;51.214;6.768;2023-07-20T00:21:06;101079.81;;;17.40;82.84
4972;BME280;2501;51.214;6.768;2023-07-20T00:23:35;101079.84;;;17.39;83.56
4972;BME280;2501;51.214;6.768;2023-07-20T00:26:04;101085.31;;;17.30;84.22
4972;BME280;2501;51.214;6.768;2023-07-20T00:28:32;101080.19;;;17.71;81.71
4972;BME280;2501;51.214;6.768;2023-07-20T00:31:00;101082.53;;;17.36;83.17
4972;BME280;2501;51.214;6.768;2023-07-20T00:33:29;101079.38;;;17.66;81.94
4972;BME280;2501;51.214;6.768;2023-07-20T00:36:00;101070.28;;;17.81;81.11
4972;BME280;2501;51.214;6.768;2023-07-20T00:38:29;101076.56;;;17.76;81.18
4972;BME280;2501;51.214;6.768;2023-07-20T00:40:57;101072.53;;;17.52;81.71
4972;BME280;2501;51.214;6.768;2023-07-20T00:43:25;101062.47;;;17.20;83.61
4972;BME280;2501;51.214;6.768;2023-07-20T00:45:54;101079.00;;;17.35;84.86
4972;BME280;2501;51.214;6.768;2023-07-20T00:48:23;101076.94;;;17.53;82.62
4972;BME280;2501;51.214;6.768;2023-07-20T00:50:52;101082.56;;;17.33;84.10
4972;BME280;2501;51.214;6.768;2023-07-20T00:53:23;101093.31;;;17.27;84.44
4972;BME280;2501;51.214;6.768;2023-07-20T00:55:51;101086.84;;;17.43;84.02
4972;BME280;2501;51.214;6.768;2023-07-20T00:58:20;101091.69;;;17.15;84.10
4972;BME280;2501;51.214;6.768;2023-07-20T01:00:48;101092.63;;;17.68;83.55
4972;BME280;2501;51.214;6.768;2023-07-20T01:03:17;101091.81;;;17.63;81.98
4972;BME280;2501;51.214;6.768;2023-07-20T01:05:51;101091.66;;;17.72;81.40
4972;BME280;2501;51.214;6.768;2023-07-20T01:08:33;101087.53;;;17.54;82.97
4972;BME280;2501;51.214;6.768;2023-07-20T01:11:09;101086.56;;;17.60;82.08
4972;BME280;2501;51.214;6.768;2023-07-20T01:13:39;101089.06;;;17.69;81.57
4972;BME280;2501;51.214;6.768;2023-07-20T01:16:08;101086.41;;;17.15;83.42
4972;BME280;2501;51.214;6.768;2023-07-20T01:18:36;101088.44;;;17.52;83.95
4972;BME280;2501;51.214;6.768;2023-07-20T01:21:09;101087.50;;;17.56;84.22
4972;BME280;2501;51.214;6.768;2023-07-20T01:24:08;101078.16;;;17.32;84.58
4972;BME280;2501;51.214;6.768;2023-07-20T01:27:00;101080.69;;;16.86;88.38
4972;BME280;2501;51.214;6.768;2023-07-20T01:29:51;101083.94;;;17.04;89.97
4972;BME280;2501;51.214;6.768;2023-07-20T01:32:26;101080.22;;;17.15;88.10
4972;BME280;2501;51.214;6.768;2023-07-20T01:34:56;101084.59;;;17.17;86.42
4972;BME280;2501;51.214;6.768;2023-07-20T01:37:27;101077.53;;;17.18;87.13
4972;BME280;2501;51.214;6.768;2023-07-20T01:39:57;101067.91;;;17.12;86.21
4972;BME280;2501;51.214;6.768;2023-07-20T01:42:26;101075.94;;;17.08;88.09
4972;BME280;2501;51.214;6.768;2023-07-20T01:44:55;101071.78;;;16.90;89.39
4972;BME280;2501;51.214;6.768;2023-07-20T01:47:26;101066.56;;;16.85;89.82
4972;BME280;2501;51.214;6.768;2023-07-20T01:49:54;101073.22;;;16.49;91.56
4972;BME280;2501;51.214;6.768;2023-07-20T01:52:23;101081.41;;;16.97;90.94
4972;BME280;2501;51.214;6.768;2023-07-20T01:54:51;101081.78;;;17.29;89.00
4972;BME280;2501;51.214;6.768;2023-07-20T01:57:19;101075.50;;;17.33;87.90
4972;BME280;2501;51.214;6.768;2023-07-20T01:59:48;101074.16;;;17.08;88.92
4972;BME280;2501;51.214;6.768;2023-07-20T02:02:16;101074.78;;;16.65;90.22
4972;BME280;2501;51.214;6.768;2023-07-20T02:04:48;101070.06;;;16.87;90.73
4972;BME280;2501;51.214;6.768;2023-07-20T02:07:17;101064.47;;;16.44;93.05
4972;BME280;2501;51.214;6.768;2023-07-20T02:09:45;101068.06;;;16.40;94.11
4972;BME280;2501;51.214;6.768;2023-07-20T02:12:14;101062.53;;;16.55;94.73
4972;BME280;2501;51.214;6.768;2023-07-20T02:14:42;101063.97;;;16.81;92.89
4972;BME280;2501;51.214;6.768;2023-07-20T02:17:11;101071.25;;;16.66;91.55
4972;BME280;2501;51.214;6.768;2023-07-20T02:19:40;101064.94;;;16.75;91.18
4972;BME280;2501;51.214;6.768;2023-07-20T02:22:11;101059.28;;;16.98;90.58
4972;BME280;2501;51.214;6.768;2023-07-20T02:24:40;101060.25;;;16.95;90.06
4972;BME280;2501;51.214;6.768;2023-07-20T02:27:08;101063.22;;;16.73;90.89
4972;BME280;2501;51.214;6.768;2023-07-20T02:29:36;101063.09;;;16.80;91.67
4972;BME280;2501;51.214;6.768;2023-07-20T02:32:06;101071.19;;;16.69;91.93
4972;BME280;2501;51.214;6.768;2023-07-20T02:34:35;101070.22;;;16.77;91.57
4972;BME280;2501;51.214;6.768;2023-07-20T02:37:04;101074.66;;;16.75;92.10
4972;BME280;2501;51.214;6.768;2023-07-20T02:39:35;101081.78;;;16.69;92.13
4972;BME280;2501;51.214;6.768;2023-07-20T02:42:04;101079.13;;;16.71;91.38
4972;BME280;2501;51.214;6.768;2023-07-20T02:44:32;101079.94;;;16.78;91.22
4972;BME280;2501;51.214;6.768;2023-07-20T02:47:01;101069.50;;;16.62;92.00
4972;BME280;2501;51.214;6.768;2023-07-20T02:49:29;101076.69;;;16.53;92.33
4972;BME280;2501;51.214;6.768;2023-07-20T02:51:58;101076.63;;;16.59;92.29
4972;BME280;2501;51.214;6.768;2023-07-20T02:54:26;101069.69;;;16.49;91.85
4972;BME280;2501;51.214;6.768;2023-07-20T02:56:58;101077.84;;;16.30;93.60
4972;BME280;2501;51.214;6.768;2023-07-20T02:59:26;101073.13;;;16.55;92.40
4972;BME280;2501;51.214;6.768;2023-07-20T03:01:55;101078.72;;;16.32;92.86
4972;BME280;2501;51.214;6.768;2023-07-20T03:04:25;101070.91;;;16.23;94.03
4972;BME280;2501;51.214;6.768;2023-07-20T03:06:54;101080.03;;;15.96;95.62
4972;BME280;2501;51.214;6.768;2023-07-20T03:09:22;101081.75;;;16.00;96.70
4972;BME280;2501;51.214;6.768;2023-07-20T03:11:51;101079.84;;;16.13;96.70
4972;BME280;2501;51.214;6.768;2023-07-20T03:14:22;101089.50;;;16.16;97.13
4972;BME280;2501;51.214;6.768;2023-07-20T03:16:50;101092.78;;;16.38;95.60
4972;BME280;2501;51.214;6.768;2023-07-20T03:19:19;101090.31;;;16.22;95.37
4972;BME280;2501;51.214;6.768;2023-07-20T03:21:47;101095.50;;;16.31;95.05
4972;BME280;2501;51.214;6.768;2023-07-20T03:24:16;101099.53;;;15.86;96.78
4972;BME280;2501;51.214;6.768;2023-07-20T03:26:44;101083.84;;;16.46;97.17
4972;BME280;2501;51.214;6.768;2023-07-20T03:29:13;101093.22;;;16.73;95.60
4972;BME280;2501;51.214;6.768;2023-07-20T03:31:44;101089.75;;;16.68;94.05
4972;BME280;2501;51.214;6.768;2023-07-20T03:34:13;101094.06;;;16.78;93.81
4972;BME280;2501;51.214;6.768;2023-07-20T03:36:42;101090.72;;;16.61;94.12
4972;BME280;2501;51.214;6.768;2023-07-20T03:39:10;101090.00;;;16.47;94.11
4972;BME280;2501;51.214;6.768;2023-07-20T03:41:38;101098.25;;;16.25;95.02
4972;BME280;2501;51.214;6.768;2023-07-20T03:44:08;101095.47;;;16.33;95.31
4972;BME280;2501;51.214;6.768;2023-07-20T03:46:37;101090.91;;;16.46;95.55
4972;BME280;2501;51.214;6.768;2023-07-20T03:49:07;101108.84;;;16.24;96.51
4972;BME280;2501;51.214;6.768;2023-07-20T03:51:36;101105.97;;;16.42;96.59
4972;BME280;2501;51.214;6.768;2023-07-20T03:54:05;101108.44;;;16.56;94.91
4972;BME280;2501;51.214;6.768;2023-07-20T03:56:33;101105.97;;;16.42;95.09
4972;BME280;2501;51.214;6.768;2023-07-20T03:59:02;101114.84;;;16.38;95.50
4972;BME280;2501;51.214;6.768;2023-07-20T04:01:30;101113.06;;;16.40;95.44
4972;BME280;2501;51.214;6.768;2023-07-20T04:04:04;101120.00;;;16.47;95.96
4972;BME280;2501;51.214;6.768;2023-07-20T04:06:35;101115.53;;;16.52;95.16
4972;BME280;2501;51.214;6.768;2023-07-20T04:09:03;101116.59;;;16.39;94.97
4972;BME280;2501;51.214;6.768;2023-07-20T04:11:33;101110.38;;;16.43;95.71
4972;BME280;2501;51.214;6.768;2023-07-20T04:14:01;101121.03;;;16.37;95.92
4972;BME280;2501;51.214;6.768;2023-07-20T04:16:29;101113.97;;;16.36;96.78
4972;BME280;2501;51.214;6.768;2023-07-20T04:18:58;101115.59;;;16.46;96.67
4972;BME280;2501;51.214;6.768;2023-07-20T04:21:27;101112.22;;;16.35;97.20
4972;BME280;2501;51.214;6.768;2023-07-20T04:23:58;101115.50;;;16.55;97.04
4972;BME280;2501;51.214;6.768;2023-07-20T04:26:26;101115.44;;;16.61;96.37
4972;BME280;2501;51.214;6.768;2023-07-20T04:28:55;101118.19;;;16.51;95.77
4972;BME280;2501;51.214;6.768;2023-07-20T04:31:24;101116.50;;;16.45;95.95
4972;BME280;2501;51.214;6.768;2023-07-20T04:33:53;101118.25;;;16.46;96.06
4972;BME280;2501;51.214;6.768;2023-07-20T04:36:21;101124.31;;;16.56;96.17
4972;BME280;2501;51.214;6.768;2023-07-20T04:38:50;101128.69;;;16.60;95.79
4972;BME280;2501;51.214;6.768;2023-07-20T04:41:18;101133.13;;;16.59;95.41
4972;BME280;2501;51.214;6.768;2023-07-20T04:43:46;101124.16;;;16.69;95.75
4972;BME280;2501;51.214;6.768;2023-07-20T04:46:15;101127.69;;;16.70;95.47
4972;BME280;2501;51.214;6.768;2023-07-20T04:48:44;101141.94;;;16.58;95.61
4972;BME280;2501;51.214;6.768;2023-07-20T04:51:13;101137.38;;;16.74;95.60
4972;BME280;2501;51.214;6.768;2023-07-20T04:53:42;101141.00;;;16.65;95.80
4972;BME280;2501;51.214;6.768;2023-07-20T04:56:11;101139.03;;;16.80;95.82
4972;BME280;2501;51.214;6.768;2023-07-20T04:58:42;101143.50;;;16.79;95.19
4972;BME280;2501;51.214;6.768;2023-07-20T05:01:10;101136.34;;;16.83;94.79
4972;BME280;2501;51.214;6.768;2023-07-20T05:03:39;101145.31;;;16.73;95.36
4972;BME280;2501;51.214;6.768;2023-07-20T05:06:07;101132.72;;;16.90;95.39
4972;BME280;2501;51.214;6.768;2023-07-20T05:08:35;101127.75;;;16.64;95.18
4972;BME280;2501;51.214;6.768;2023-07-20T05:11:04;101129.69;;;16.48;96.44
4972;BME280;2501;51.214;6.768;2023-07-20T05:13:33;101136.91;;;16.37;96.72
4972;BME280;2501;51.214;6.768;2023-07-20T05:16:04;101143.63;;;16.67;97.49
4972;BME280;2501;51.214;6.768;2023-07-20T05:18:33;101144.69;;;16.51;97.27
4972;BME280;2501;51.214;6.768;2023-07-20T05:21:02;101141.28;;;16.41;98.12
4972;BME280;2501;51.214;6.768;2023-07-20T05:23:30;101142.91;;;16.51;98.76
4972;BME280;2501;51.214;6.768;2023-07-20T05:25:59;101145.69;;;16.42;98.91
4972;BME280;2501;51.214;6.768;2023-07-20T05:28:27;101144.50;;;16.66;98.44
4972;BME280;2501;51.214;6.768;2023-07-20T05:30:56;101139.31;;;16.58;97.99
4972;BME280;2501;51.214;6.768;2023-07-20T05:33:27;101134.59;;;16.80;97.54
4972;BME280;2501;51.214;6.768;2023-07-20T05:35:56;101140.69;;;16.90;97.55
4972;BME280;2501;51.214;6.768;2023-07-20T05:38:24;101139.88;;;16.82;97.12
4972;BME280;2501;51.214;6.768;2023-07-20T05:40:59;101139.88;;;16.82;96.87
4972;BME280;2501;51.214;6.768;2023-07-20T05:43:29;101139.16;;;17.32;96.30
4972;BME280;2501;51.214;6.768;2023-07-20T05:45:57;101139.09;;;17.35;93.92
4972;BME280;2501;51.214;6.768;2023-07-20T05:48:28;101139.97;;;17.35;93.70
4972;BME280;2501;51.214;6.768;2023-07-20T05:50:57;101145.81;;;17.59;92.19
4972;BME280;2501;51.214;6.768;2023-07-20T05:53:25;101148.69;;;17.45;91.60
4972;BME280;2501;51.214;6.768;2023-07-20T05:55:54;101157.03;;;17.19;91.52
4972;BME280;2501;51.214;6.768;2023-07-20T05:58:23;101158.88;;;17.14;92.65
4972;BME280;2501;51.214;6.768;2023-07-20T06:00:53;101155.41;;;17.09;93.49
4972;BME280;2501;51.214;6.768;2023-07-20T06:03:22;101156.41;;;17.00;93.91
4972;BME280;2501;51.214;6.768;2023-07-20T06:05:58;101157.31;;;16.99;94.25
4972;BME280;2501;51.214;6.768;2023-07-20T06:08:26;101159.59;;;17.25;94.54
4972;BME280;2501;51.214;6.768;2023-07-20T06:10:55;101158.75;;;17.22;93.46
4972;BME280;2501;51.214;6.768;2023-07-20T06:13:23;101162.25;;;17.24;92.88
4972;BME280;2501;51.214;6.768;2023-07-20T06:15:52;101164.22;;;17.13;92.63
4972;BME280;2501;51.214;6.768;2023-07-20T06:18:22;101165.28;;;16.98;92.86
4972;BME280;2501;51.214;6.768;2023-07-20T06:20:53;101166.22;;;16.95;94.42
4972;BME280;2501;51.214;6.768;2023-07-20T06:23:22;101165.41;;;16.89;94.36
4972;BME280;2501;51.214;6.768;2023-07-20T06:25:50;101175.31;;;16.76;94.55
4972;BME280;2501;51.214;6.768;2023-07-20T06:28:19;101178.50;;;16.99;94.11
4972;BME280;2501;51.214;6.768;2023-07-20T06:30:47;101185.72;;;16.88;93.34
4972;BME280;2501;51.214;6.768;2023-07-20T06:33:16;101185.53;;;17.02;93.32
4972;BME280;2501;51.214;6.768;2023-07-20T06:35:45;101182.06;;;16.98;91.47
4972;BME280;2501;51.214;6.768;2023-07-20T06:38:16;101184.38;;;17.23;90.97
4972;BME280;2501;51.214;6.768;2023-07-20T06:40:46;101178.13;;;17.28;89.20
4972;BME280;2501;51.214;6.768;2023-07-20T06:43:14;101163.41;;;17.66;87.12
4972;BME280;2501;51.214;6.768;2023-07-20T06:45:43;101171.13;;;17.80;85.73
4972;BME280;2501;51.214;6.768;2023-07-20T06:48:11;101172.03;;;18.26;83.57
4972;BME280;2501;51.214;6.768;2023-07-20T06:50:40;101178.63;;;18.05;82.54
4972;BME280;2501;51.214;6.768;2023-07-20T06:53:08;101175.00;;;18.09;79.61
4972;BME280;2501;51.214;6.768;2023-07-20T06:55:41;101179.53;;;18.03;79.63
4972;BME280;2501;51.214;6.768;2023-07-20T06:58:10;101171.97;;;17.83;79.52
4972;BME280;2501;51.214;6.768;2023-07-20T07:00:39;101183.66;;;18.19;78.53
4972;BME280;2501;51.214;6.768;2023-07-20T07:03:08;101176.03;;;18.01;77.05
4972;BME280;2501;51.214;6.768;2023-07-20T07:05:36;101182.91;;;18.14;75.75
4972;BME280;2501;51.214;6.768;2023-07-20T07:08:07;101182.84;;;18.17;75.80
4972;BME280;2501;51.214;6.768;2023-07-20T07:10:38;101179.22;;;18.69;74.06
4972;BME280;2501;51.214;6.768;2023-07-20T07:13:07;101181.16;;;18.58;73.56
4972;BME280;2501;51.214;6.768;2023-07-20T07:15:35;101180.44;;;18.50;72.96
4972;BME280;2501;51.214;6.768;2023-07-20T07:18:04;101191.91;;;18.04;74.12
4972;BME280;2501;51.214;6.768;2023-07-20T07:20:32;101190.00;;;18.58;73.88
4972;BME280;2501;51.214;6.768;2023-07-20T07:23:01;101186.56;;;18.98;72.36
4972;BME280;2501;51.214;6.768;2023-07-20T07:25:30;101182.13;;;19.37;71.01
4972;BME280;2501;51.214;6.768;2023-07-20T07:28:01;101180.06;;;19.85;69.57
4972;BME280;2501;51.214;6.768;2023-07-20T07:30:29;101192.97;;;19.28;71.33
4972;BME280;2501;51.214;6.768;2023-07-20T07:32:57;101189.34;;;18.92;73.47
4972;BME280;2501;51.214;6.768;2023-07-20T07:35:26;101202.41;;;18.59;75.22
4972;BME280;2501;51.214;6.768;2023-07-20T07:37:55;101198.94;;;18.54;76.08
4972;BME280;2501;51.214;6.768;2023-07-20T07:40:23;101199.97;;;18.47;76.19
4972;BME280;2501;51.214;6.768;2023-07-20T07:42:52;101199.50;;;18.25;75.86
4972;BME280;2501;51.214;6.768;2023-07-20T07:45:23;101210.56;;;18.49;75.74
4972;BME280;2501;51.214;6.768;2023-07-20T07:47:51;101207.66;;;18.62;73.86
4972;BME280;2501;51.214;6.768;2023-07-20T07:50:20;101207.53;;;18.70;72.64
4972;BME280;2501;51.214;6.768;2023-07-20T07:52:48;101208.09;;;18.38;72.89
4972;BME280;2501;51.214;6.768;2023-07-20T07:55:17;101208.84;;;17.98;73.46
4972;BME280;2501;51.214;6.768;2023-07-20T07:57:45;101211.91;;;18.25;73.69
4972;BME280;2501;51.214;6.768;2023-07-20T08:00:15;101213.50;;;18.35;72.50
4972;BME280;2501;51.214;6.768;2023-07-20T08:02:47;101220.53;;;18.36;72.14
4972;BME280;2501;51.214;6.768;2023-07-20T08:05:16;101215.97;;;18.89;69.65
4972;BME280;2501;51.214;6.768;2023-07-20T08:07:44;101216.44;;;19.07;68.80
4972;BME280;2501;51.214;6.768;2023-07-20T08:10:13;101221.19;;;18.93;69.26
4972;BME280;2501;51.214;6.768;2023-07-20T08:12:42;101220.56;;;18.82;68.99
4972;BME280;2501;51.214;6.768;2023-07-20T08:15:11;101220.78;;;19.13;67.78
4972;BME280;2501;51.214;6.768;2023-07-20T08:17:42;101216.03;;;19.27;66.50
4972;BME280;2501;51.214;6.768;2023-07-20T08:20:13;101210.06;;;19.16;64.55
4972;BME280;2501;51.214;6.768;2023-07-20T08:22:43;101216.50;;;19.44;63.36
4972;BME280;2501;51.214;6.768;2023-07-20T09:09:02;101218.75;;;20.00;59.89
4972;BME280;2501;51.214;6.768;2023-07-20T09:11:31;101216.69;;;19.75;61.25
4972;BME280;2501;51.214;6.768;2023-07-20T09:14:04;101216.78;;;19.72;61.29
4972;BME280;2501;51.214;6.768;2023-07-20T09:16:33;101217.00;;;19.99;61.32
4972;BME280;2501;51.214;6.768;2023-07-20T09:19:15;101210.28;;;20.18;61.21
4972;BME280;2501;51.214;6.768;2023-07-20T09:21:48;101215.69;;;20.15;59.98
4972;BME280;2501;51.214;6.768;2023-07-20T09:24:19;101226.00;;;19.93;60.28
4972;BME280;2501;51.214;6.768;2023-07-20T09:26:48;101221.13;;;19.75;60.02
4972;BME280;2501;51.214;6.768;2023-07-20T09:29:18;101219.69;;;19.62;58.94
4972;BME280;2501;51.214;6.768;2023-07-20T09:31:59;101217.78;;;20.38;57.77
4972;BME280;2501;51.214;6.768;2023-07-20T09:34:28;101210.38;;;20.78;56.15
4972;BME280;2501;51.214;6.768;2023-07-20T09:36:57;101206.25;;;20.98;56.76
4972;BME280;2501;51.214;6.768;2023-07-20T09:39:29;101207.94;;;21.02;56.88
4972;BME280;2501;51.214;6.768;2023-07-20T09:42:00;101208.16;;;20.31;57.00
4972;BME280;2501;51.214;6.768;2023-07-20T09:44:30;101204.19;;;20.13;57.67
4972;BME280;2501;51.214;6.768;2023-07-20T09:46:58;101210.66;;;20.04;56.44
4972;BME280;2501;51.214;6.768;2023-07-20T09:49:27;101201.00;;;20.65;55.69
4972;BME280;2501;51.214;6.768;2023-07-20T09:52:00;101198.94;;;20.44;54.33
4972;BME280;2501;51.214;6.768;2023-07-20T09:54:33;101203.47;;;21.02;52.19
4972;BME280;2501;51.214;6.768;2023-07-20T09:57:02;101194.38;;;21.39;50.75
4972;BME280;2501;51.214;6.768;2023-07-20T09:59:31;101188.81;;;21.46;49.02
4972;BME280;2501;51.214;6.768;2023-07-20T10:02:02;101189.81;;;21.42;50.16
4972;BME280;2501;51.214;6.768;2023-07-20T10:04:34;101191.84;;;21.62;49.67
4972;BME280;2501;51.214;6.768;2023-07-20T10:07:10;101198.41;;;21.24;49.49
4972;BME280;2501;51.214;6.768;2023-07-20T10:09:43;101199.00;;;21.32;50.07
4972;BME280;2501;51.214;6.768;2023-07-20T10:12:14;101207.06;;;20.39;51.42
4972;BME280;2501;51.214;6.768;2023-07-20T10:14:49;101194.78;;;20.65;51.34
4972;BME280;2501;51.214;6.768;2023-07-20T10:17:21;101196.25;;;20.76;51.81
4972;BME280;2501;51.214;6.768;2023-07-20T10:19:52;101196.22;;;20.78;51.37
4972;BME280;2501;51.214;6.768;2023-07-20T10:22:25;101194.84;;;20.63;51.91
4972;BME280;2501;51.214;6.768;2023-07-20T10:24:58;101192.94;;;20.68;51.59
4972;BME280;2501;51.214;6.768;2023-07-20T10:27:26;101192.72;;;20.76;52.72
4972;BME280;2501;51.214;6.768;2023-07-20T10:29:56;101189.56;;;20.93;51.09
4972;BME280;2501;51.214;6.768;2023-07-20T10:32:27;101188.16;;;21.09;51.10
4972;BME280;2501;51.214;6.768;2023-07-20T10:34:56;101185.69;;;21.03;50.34
4972;BME280;2501;51.214;6.768;2023-07-20T10:37:50;101192.19;;;20.94;50.66
4972;BME280;2501;51.214;6.768;2023-07-20T10:40:31;101173.25;;;21.59;49.20
4972;BME280;2501;51.214;6.768;2023-07-20T10:43:03;101170.59;;;21.59;48.33
4972;BME280;2501;51.214;6.768;2023-07-20T10:45:36;101180.50;;;22.08;47.55
4972;BME280;2501;51.214;6.768;2023-07-20T10:48:06;101174.19;;;22.11;48.32
4972;BME280;2501;51.214;6.768;2023-07-20T10:50:35;101167.56;;;21.96;48.49
4972;BME280;2501;51.214;6.768;2023-07-20T10:53:04;101167.69;;;22.18;47.56
4972;BME280;2501;51.214;6.768;2023-07-20T10:55:36;101170.31;;;21.93;48.26
4972;BME280;2501;51.214;6.768;2023-07-20T10:58:11;101158.31;;;21.80;48.99
4972;BME280;2501;51.214;6.768;2023-07-20T11:00:58;101160.94;;;21.81;48.60
4972;BME280;2501;51.214;6.768;2023-07-20T11:03:29;101158.97;;;21.86;48.44
4972;BME280;2501;51.214;6.768;2023-07-20T11:05:58;101152.41;;;22.21;47.42
4972;BME280;2501;51.214;6.768;2023-07-20T11:08:41;101151.03;;;22.35;46.67
4972;BME280;2501;51.214;6.768;2023-07-20T11:11:25;101153.44;;;22.67;45.02
4972;BME280;2501;51.214;6.768;2023-07-20T11:13:56;101156.25;;;22.14;43.68
4972;BME280;2501;51.214;6.768;2023-07-20T11:16:36;101145.31;;;22.45;43.54
4972;BME280;2501;51.214;6.768;2023-07-20T11:19:06;101150.41;;;22.28;44.20
4972;BME280;2501;51.214;6.768;2023-07-20T11:21:38;101143.22;;;22.30;43.51
4972;BME280;2501;51.214;6.768;2023-07-20T11:24:08;101146.03;;;22.26;44.50
4972;BME280;2501;51.214;6.768;2023-07-20T11:26:49;101148.09;;;21.93;45.75
4972;BME280;2501;51.214;6.768;2023-07-20T11:29:19;101146.31;;;22.18;46.40
4972;BME280;2501;51.214;6.768;2023-07-20T11:31:49;101138.81;;;22.52;46.26
4972;BME280;2501;51.214;6.768;2023-07-20T11:34:18;101133.22;;;22.35;46.05
4972;BME280;2501;51.214;6.768;2023-07-20T11:36:48;101145.88;;;22.05;46.41
4972;BME280;2501;51.214;6.768;2023-07-20T11:39:18;101137.31;;;22.45;45.66
4972;BME280;2501;51.214;6.768;2023-07-20T11:41:52;101137.09;;;22.98;44.44
4972;BME280;2501;51.214;6.768;2023-07-20T11:44:22;101135.41;;;22.49;45.35
4972;BME280;2501;51.214;6.768;2023-07-20T11:46:59;101144.06;;;23.02;43.78
4972;BME280;2501;51.214;6.768;2023-07-20T11:49:28;101136.44;;;22.45;44.58
4972;BME280;2501;51.214;6.768;2023-07-20T11:51:57;101142.66;;;22.20;44.52
4972;BME280;2501;51.214;6.768;2023-07-20T11:54:26;101134.78;;;22.41;44.88
4972;BME280;2501;51.214;6.768;2023-07-20T11:57:00;101125.44;;;22.29;44.10
4972;BME280;2501;51.214;6.768;2023-07-20T11:59:30;101117.31;;;22.32;42.78
4972;BME280;2501;51.214;6.768;2023-07-20T12:02:01;101126.41;;;22.27;42.15
4972;BME280;2501;51.214;6.768;2023-07-20T12:04:30;101127.94;;;22.34;41.16
4972;BME280;2501;51.214;6.768;2023-07-20T12:06:59;101123.81;;;22.72;40.97
4972;BME280;2501;51.214;6.768;2023-07-20T12:09:30;101122.31;;;23.33;40.31
4972;BME280;2501;51.214;6.768;2023-07-20T12:12:09;101118.56;;;23.37;40.63
4972;BME280;2501;51.214;6.768;2023-07-20T12:14:38;101116.09;;;22.64;42.17
4972;BME280;2501;51.214;6.768;2023-07-20T12:17:08;101115.78;;;22.72;42.62
4972;BME280;2501;51.214;6.768;2023-07-20T12:19:38;101114.69;;;23.44;40.92
4972;BME280;2501;51.214;6.768;2023-07-20T12:22:07;101118.09;;;22.82;41.76
4972;BME280;2501;51.214;6.768;2023-07-20T12:24:36;101115.44;;;22.82;41.92
4972;BME280;2501;51.214;6.768;2023-07-20T12:27:08;101115.44;;;22.82;42.14
4972;BME280;2501;51.214;6.768;2023-07-20T12:29:36;101108.84;;;23.13;41.64
4972;BME280;2501;51.214;6.768;2023-07-20T12:32:05;101103.50;;;23.56;40.70
4972;BME280;2501;51.214;6.768;2023-07-20T12:34:34;101106.28;;;22.88;41.16
4972;BME280;2501;51.214;6.768;2023-07-20T12:37:04;101106.66;;;22.79;41.52
4972;BME280;2501;51.214;6.768;2023-07-20T12:39:33;101100.25;;;23.48;39.97
4972;BME280;2501;51.214;6.768;2023-07-20T12:42:01;101103.28;;;22.50;41.20
4972;BME280;2501;51.214;6.768;2023-07-20T12:44:32;101105.50;;;22.38;41.77
4972;BME280;2501;51.214;6.768;2023-07-20T12:47:01;101108.72;;;22.47;41.82
4972;BME280;2501;51.214;6.768;2023-07-20T12:49:29;101103.00;;;22.81;41.34
4972;BME280;2501;51.214;6.768;2023-07-20T12:51:58;101099.06;;;22.90;41.79
4972;BME280;2501;51.214;6.768;2023-07-20T12:54:26;101101.69;;;22.91;40.66
4972;BME280;2501;51.214;6.768;2023-07-20T12:56:54;101101.53;;;23.18;41.17
4972;BME280;2501;51.214;6.768;2023-07-20T12:59:23;101101.25;;;23.24;40.11
4972;BME280;2501;51.214;6.768;2023-07-20T13:01:54;101093.28;;;23.44;39.96
4972;BME280;2501;51.214;6.768;2023-07-20T13:04:23;101081.47;;;23.06;40.41
4972;BME280;2501;51.214;6.768;2023-07-20T13:06:51;101093.34;;;23.21;40.18
4972;BME280;2501;51.214;6.768;2023-07-20T13:09:20;101088.78;;;22.56;42.52
4972;BME280;2501;51.214;6.768;2023-07-20T13:11:49;101094.63;;;22.19;43.71
4972;BME280;2501;51.214;6.768;2023-07-20T13:14:18;101090.97;;;22.21;44.23
4972;BME280;2501;51.214;6.768;2023-07-20T13:16:46;101090.75;;;22.28;44.25
4972;BME280;2501;51.214;6.768;2023-07-20T13:19:17;101086.28;;;22.28;43.91
4972;BME280;2501;51.214;6.768;2023-07-20T13:21:45;101086.84;;;22.13;44.71
4972;BME280;2501;51.214;6.768;2023-07-20T13:24:14;101098.34;;;22.15;44.85
4972;BME280;2501;51.214;6.768;2023-07-20T13:26:42;101098.84;;;22.01;45.28
4972;BME280;2501;51.214;6.768;2023-07-20T13:29:11;101089.88;;;22.27;44.32
4972;BME280;2501;51.214;6.768;2023-07-20T13:31:39;101086.53;;;22.45;44.09
4972;BME280;2501;51.214;6.768;2023-07-20T13:34:08;101087.63;;;22.40;44.24
4972;BME280;2501;51.214;6.768;2023-07-20T13:36:39;101079.59;;;22.40;44.14
4972;BME280;2501;51.214;6.768;2023-07-20T13:39:08;101086.81;;;22.61;43.51
4972;BME280;2501;51.214;6.768;2023-07-20T13:41:36;101080.47;;;22.40;43.66
4972;BME280;2501;51.214;6.768;2023-07-20T13:44:05;101083.63;;;22.28;43.97
4972;BME280;2501;51.214;6.768;2023-07-20T13:46:33;101082.91;;;21.98;44.78
4972;BME280;2501;51.214;6.768;2023-07-20T13:49:02;101080.75;;;22.09;44.83
4972;BME280;2501;51.214;6.768;2023-07-20T13:51:30;101090.59;;;22.07;44.89
4972;BME280;2501;51.214;6.768;2023-07-20T13:54:01;101098.94;;;21.98;45.01
4972;BME280;2501;51.214;6.768;2023-07-20T13:56:29;101084.88;;;21.67;45.88
4972;BME280;2501;51.214;6.768;2023-07-20T13:58:58;101089.19;;;21.97;45.64
4972;BME280;2501;51.214;6.768;2023-07-20T14:01:26;101080.28;;;21.97;45.47
4972;BME280;2501;51.214;6.768;2023-07-20T14:03:58;101078.31;;;22.27;44.69
4972;BME280;2501;51.214;6.768;2023-07-20T14:06:29;101074.19;;;22.18;44.39
4972;BME280;2501;51.214;6.768;2023-07-20T14:09:01;101073.88;;;22.02;45.44